sensor_id;sensor_type;location;lat;lon;timestamp;temperature;humidity
1786;DHT22;890;48.158;11.540;2023-07-13T00:01:17;20.40;99.90
1786;DHT22;890;48.158;11.540;2023-07-13T00:03:43;20.20;99.90
1786;DHT22;890;48.158;11.540;2023-07-13T00:06:09;20.30;99.90
1786;DHT22;890;48.158;11.540;2023-07-13T00:08:35;20.30;99.90
1786;DHT22;890;48.158;11.540;2023-07-13T00:11:01;20.40;99.90
1786;DHT22;890;48.158;11.540;2023-07-13T00:13:29;20.50;99.90
1786;DHT22;890;48.158;11.540;2023-07-13T00:15:56;20.50;99.90
1786;DHT22;890;48.158;11.540;2023-07-13T00:18:22;20.50;99.90
1786;DHT22;890;48.158;11.540;2023-07-13T00:20:48;20.50;99.90
1786;DHT22;890;48.158;11.540;2023-07-13T00:23:14;20.60;99.90
1786;DHT22;890;48.158;11.540;2023-07-13T00:25:39;20.70;99.90
1786;DHT22;890;48.158;11.540;2023-07-13T00:28:05;20.70;99.90
1786;DHT22;890;48.158;11.540;2023-07-13T00:30:31;20.80;99.90
1786;DHT22;890;48.158;11.540;2023-07-13T00:32:57;20.80;99.90
1786;DHT22;890;48.158;11.540;2023-07-13T00:35:22;20.90;99.90
1786;DHT22;890;48.158;11.540;2023-07-13T00:37:48;20.80;99.90
1786;DHT22;890;48.158;11.540;2023-07-13T00:40:16;20.70;99.90
1786;DHT22;890;48.158;11.540;2023-07-13T00:42:41;20.80;99.90
1786;DHT22;890;48.158;11.540;2023-07-13T00:47:39;20.70;99.90
1786;DHT22;890;48.158;11.540;2023-07-13T00:50:10;20.70;99.90
1786;DHT22;890;48.158;11.540;2023-07-13T00:52:40;20.70;99.90
1786;DHT22;890;48.158;11.540;2023-07-13T00:55:07;20.70;99.90
1786;DHT22;890;48.158;11.540;2023-07-13T00:57:35;20.80;99.90
1786;DHT22;890;48.158;11.540;2023-07-13T01:00:03;20.80;99.90
1786;DHT22;890;48.158;11.540;2023-07-13T01:02:32;20.80;99.90
1786;DHT22;890;48.158;11.540;2023-07-13T01:04:58;20.90;99.90
1786;DHT22;890;48.158;11.540;2023-07-13T01:07:24;20.70;99.90
1786;DHT22;890;48.158;11.540;2023-07-13T01:09:50;20.70;99.90
1786;DHT22;890;48.158;11.540;2023-07-13T01:12:16;20.60;99.90
1786;DHT22;890;48.158;11.540;2023-07-13T01:14:41;20.70;99.90
1786;DHT22;890;48.158;11.540;2023-07-13T01:17:10;20.70;99.90
1786;DHT22;890;48.158;11.540;2023-07-13T01:19:43;20.70;99.90
1786;DHT22;890;48.158;11.540;2023-07-13T01:22:14;20.60;99.90
1786;DHT22;890;48.158;11.540;2023-07-13T01:24:43;20.70;99.90
1786;DHT22;890;48.158;11.540;2023-07-13T01:27:12;20.70;99.90
1786;DHT22;890;48.158;11.540;2023-07-13T01:29:39;20.70;99.90
1786;DHT22;890;48.158;11.540;2023-07-13T01:32:09;20.70;99.90
1786;DHT22;890;48.158;11.540;2023-07-13T01:34:35;20.70;99.90
1786;DHT22;890;48.158;11.540;2023-07-13T01:37:03;20.70;99.90
1786;DHT22;890;48.158;11.540;2023-07-13T01:39:29;20.70;99.90
1786;DHT22;890;48.158;11.540;2023-07-13T01:41:54;20.70;99.90
1786;DHT22;890;48.158;11.540;2023-07-13T01:44:20;20.70;99.90
1786;DHT22;890;48.158;11.540;2023-07-13T01:46:45;20.70;99.90
1786;DHT22;890;48.158;11.540;2023-07-13T01:49:11;20.60;99.90
1786;DHT22;890;48.158;11.540;2023-07-13T01:51:37;20.50;99.90
1786;DHT22;890;48.158;11.540;2023-07-13T01:54:02;20.40;99.90
1786;DHT22;890;48.158;11.540;2023-07-13T01:56:28;20.30;99.90
1786;DHT22;890;48.158;11.540;2023-07-13T01:58:53;20.30;99.90
1786;DHT22;890;48.158;11.540;2023-07-13T02:01:19;20.20;99.90
1786;DHT22;890;48.158;11.540;2023-07-13T02:03:44;20.20;99.90
1786;DHT22;890;48.158;11.540;2023-07-13T02:06:10;20.20;99.90
1786;DHT22;890;48.158;11.540;2023-07-13T02:08:37;20.20;99.90
1786;DHT22;890;48.158;11.540;2023-07-13T02:11:03;20.20;99.90
1786;DHT22;890;48.158;11.540;2023-07-13T02:13:29;20.20;99.90
1786;DHT22;890;48.158;11.540;2023-07-13T02:15:54;20.30;99.90
1786;DHT22;890;48.158;11.540;2023-07-13T02:18:20;20.30;99.90
1786;DHT22;890;48.158;11.540;2023-07-13T02:20:45;20.40;99.90
1786;DHT22;890;48.158;11.540;2023-07-13T02:23:11;20.40;99.90
1786;DHT22;890;48.158;11.540;2023-07-13T02:25:37;20.50;99.90
1786;DHT22;890;48.158;11.540;2023-07-13T02:28:03;20.40;99.90
1786;DHT22;890;48.158;11.540;2023-07-13T02:30:29;20.40;99.90
1786;DHT22;890;48.158;11.540;2023-07-13T02:32:56;20.40;99.90
1786;DHT22;890;48.158;11.540;2023-07-13T02:35:21;20.40;99.90
1786;DHT22;890;48.158;11.540;2023-07-13T02:37:47;20.40;99.90
1786;DHT22;890;48.158;11.540;2023-07-13T02:40:13;20.30;99.90
1786;DHT22;890;48.158;11.540;2023-07-13T02:42:39;20.20;99.90
1786;DHT22;890;48.158;11.540;2023-07-13T02:45:05;20.20;99.90
1786;DHT22;890;48.158;11.540;2023-07-13T02:47:32;20.20;99.90
1786;DHT22;890;48.158;11.540;2023-07-13T02:49:58;20.10;99.90
1786;DHT22;890;48.158;11.540;2023-07-13T02:52:24;19.90;99.90
1786;DHT22;890;48.158;11.540;2023-07-13T02:54:50;19.30;99.90
1786;DHT22;890;48.158;11.540;2023-07-13T02:57:15;18.90;99.90
1786;DHT22;890;48.158;11.540;2023-07-13T02:59:41;18.60;99.90
1786;DHT22;890;48.158;11.540;2023-07-13T03:02:07;18.40;99.90
1786;DHT22;890;48.158;11.540;2023-07-13T03:04:37;18.20;99.90
1786;DHT22;890;48.158;11.540;2023-07-13T03:07:04;18.10;99.90
1786;DHT22;890;48.158;11.540;2023-07-13T03:09:30;18.00;99.90
1786;DHT22;890;48.158;11.540;2023-07-13T03:11:56;18.10;99.90
1786;DHT22;890;48.158;11.540;2023-07-13T03:14:22;18.00;99.90
1786;DHT22;890;48.158;11.540;2023-07-13T03:16:48;18.00;99.90
1786;DHT22;890;48.158;11.540;2023-07-13T03:19:13;18.10;99.90
1786;DHT22;890;48.158;11.540;2023-07-13T03:21:39;18.10;99.90
1786;DHT22;890;48.158;11.540;2023-07-13T03:24:05;18.10;99.90
1786;DHT22;890;48.158;11.540;2023-07-13T03:26:30;18.00;99.90
1786;DHT22;890;48.158;11.540;2023-07-13T03:28:57;18.10;99.90
1786;DHT22;890;48.158;11.540;2023-07-13T03:31:26;18.00;99.90
1786;DHT22;890;48.158;11.540;2023-07-13T03:33:54;18.00;99.90
1786;DHT22;890;48.158;11.540;2023-07-13T03:36:22;17.90;99.90
1786;DHT22;890;48.158;11.540;2023-07-13T03:38:50;18.10;99.90
1786;DHT22;890;48.158;11.540;2023-07-13T03:41:17;15.90;99.90
1786;DHT22;890;48.158;11.540;2023-07-13T03:43:42;18.10;99.90
1786;DHT22;890;48.158;11.540;2023-07-13T03:46:08;18.10;99.90
1786;DHT22;890;48.158;11.540;2023-07-13T03:48:34;18.10;99.90
1786;DHT22;890;48.158;11.540;2023-07-13T03:51:00;18.00;99.90
1786;DHT22;890;48.158;11.540;2023-07-13T03:53:25;18.00;99.90
1786;DHT22;890;48.158;11.540;2023-07-13T03:55:51;18.10;99.90
1786;DHT22;890;48.158;11.540;2023-07-13T04:00:56;18.30;99.90
1786;DHT22;890;48.158;11.540;2023-07-13T04:03:23;18.40;99.90
1786;DHT22;890;48.158;11.540;2023-07-13T04:05:48;18.40;99.90
1786;DHT22;890;48.158;11.540;2023-07-13T04:08:14;18.40;99.90
1786;DHT22;890;48.158;11.540;2023-07-13T04:10:39;18.40;99.90
1786;DHT22;890;48.158;11.540;2023-07-13T04:13:05;18.40;99.90
1786;DHT22;890;48.158;11.540;2023-07-13T04:15:32;18.40;99.90
1786;DHT22;890;48.158;11.540;2023-07-13T04:17:58;18.30;99.90
1786;DHT22;890;48.158;11.540;2023-07-13T04:20:25;18.20;99.90
1786;DHT22;890;48.158;11.540;2023-07-13T04:22:51;18.20;99.90
1786;DHT22;890;48.158;11.540;2023-07-13T04:25:18;18.30;99.90
1786;DHT22;890;48.158;11.540;2023-07-13T04:27:44;18.40;99.90
1786;DHT22;890;48.158;11.540;2023-07-13T04:30:10;18.50;99.90
1786;DHT22;890;48.158;11.540;2023-07-13T04:32:35;18.50;99.90
1786;DHT22;890;48.158;11.540;2023-07-13T04:35:01;18.50;99.90
1786;DHT22;890;48.158;11.540;2023-07-13T04:37:26;18.40;99.90
1786;DHT22;890;48.158;11.540;2023-07-13T04:39:53;18.40;99.90
1786;DHT22;890;48.158;11.540;2023-07-13T04:42:19;18.30;99.90
1786;DHT22;890;48.158;11.540;2023-07-13T04:44:48;18.30;99.90
1786;DHT22;890;48.158;11.540;2023-07-13T04:47:14;18.30;99.90
1786;DHT22;890;48.158;11.540;2023-07-13T04:49:40;18.20;99.90
1786;DHT22;890;48.158;11.540;2023-07-13T04:52:06;18.20;99.90
1786;DHT22;890;48.158;11.540;2023-07-13T04:54:35;18.40;99.90
1786;DHT22;890;48.158;11.540;2023-07-13T04:57:03;18.50;99.90
1786;DHT22;890;48.158;11.540;2023-07-13T04:59:34;18.60;99.90
1786;DHT22;890;48.158;11.540;2023-07-13T05:02:00;18.70;99.90
1786;DHT22;890;48.158;11.540;2023-07-13T05:04:27;18.70;99.90
1786;DHT22;890;48.158;11.540;2023-07-13T05:06:52;19.60;99.90
1786;DHT22;890;48.158;11.540;2023-07-13T05:09:18;18.80;99.90
1786;DHT22;890;48.158;11.540;2023-07-13T05:11:44;18.70;99.90
1786;DHT22;890;48.158;11.540;2023-07-13T05:14:10;18.70;99.90
1786;DHT22;890;48.158;11.540;2023-07-13T05:16:36;18.70;99.90
1786;DHT22;890;48.158;11.540;2023-07-13T05:19:02;18.70;99.90
1786;DHT22;890;48.158;11.540;2023-07-13T05:21:28;18.80;99.90
1786;DHT22;890;48.158;11.540;2023-07-13T05:23:54;18.70;99.90
1786;DHT22;890;48.158;11.540;2023-07-13T05:26:19;18.70;99.90
1786;DHT22;890;48.158;11.540;2023-07-13T05:28:46;18.80;99.90
1786;DHT22;890;48.158;11.540;2023-07-13T05:31:12;18.90;99.90
1786;DHT22;890;48.158;11.540;2023-07-13T05:33:38;19.00;99.90
1786;DHT22;890;48.158;11.540;2023-07-13T05:36:04;19.10;99.90
1786;DHT22;890;48.158;11.540;2023-07-13T05:38:30;19.20;99.90
1786;DHT22;890;48.158;11.540;2023-07-13T05:40:56;19.20;99.90
1786;DHT22;890;48.158;11.540;2023-07-13T05:43:22;19.30;99.90
1786;DHT22;890;48.158;11.540;2023-07-13T05:45:48;19.30;99.90
1786;DHT22;890;48.158;11.540;2023-07-13T05:48:15;19.40;99.90
1786;DHT22;890;48.158;11.540;2023-07-13T05:50:40;19.50;99.90
1786;DHT22;890;48.158;11.540;2023-07-13T05:53:06;19.50;99.90
1786;DHT22;890;48.158;11.540;2023-07-13T05:55:32;19.60;99.90
1786;DHT22;890;48.158;11.540;2023-07-13T05:57:59;19.60;99.90
1786;DHT22;890;48.158;11.540;2023-07-13T06:00:25;19.70;99.90
1786;DHT22;890;48.158;11.540;2023-07-13T06:02:51;19.70;99.90
1786;DHT22;890;48.158;11.540;2023-07-13T06:05:16;19.70;99.90
1786;DHT22;890;48.158;11.540;2023-07-13T06:07:42;19.70;99.90
1786;DHT22;890;48.158;11.540;2023-07-13T06:10:08;19.70;99.90
1786;DHT22;890;48.158;11.540;2023-07-13T06:12:34;19.80;99.90
1786;DHT22;890;48.158;11.540;2023-07-13T06:15:00;19.90;99.90
1786;DHT22;890;48.158;11.540;2023-07-13T06:17:25;20.00;99.90
1786;DHT22;890;48.158;11.540;2023-07-13T06:19:51;20.20;99.90
1786;DHT22;890;48.158;11.540;2023-07-13T06:22:16;20.30;99.90
1786;DHT22;890;48.158;11.540;2023-07-13T06:24:42;20.40;99.90
1786;DHT22;890;48.158;11.540;2023-07-13T06:27:07;20.60;99.90
1786;DHT22;890;48.158;11.540;2023-07-13T06:29:33;21.00;99.90
1786;DHT22;890;48.158;11.540;2023-07-13T06:31:59;20.90;99.90
1786;DHT22;890;48.158;11.540;2023-07-13T06:34:24;21.00;99.90
1786;DHT22;890;48.158;11.540;2023-07-13T06:36:50;21.00;99.90
1786;DHT22;890;48.158;11.540;2023-07-13T06:39:15;21.00;99.90
1786;DHT22;890;48.158;11.540;2023-07-13T06:41:41;21.10;99.90
1786;DHT22;890;48.158;11.540;2023-07-13T06:47:28;19.50;99.90
1786;DHT22;890;48.158;11.540;2023-07-13T06:49:54;24.30;99.90
1786;DHT22;890;48.158;11.540;2023-07-13T06:52:20;22.70;99.90
1786;DHT22;890;48.158;11.540;2023-07-13T06:54:45;20.80;99.90
1786;DHT22;890;48.158;11.540;2023-07-13T06:57:11;20.70;99.90
1786;DHT22;890;48.158;11.540;2023-07-13T06:59:36;20.80;99.90
1786;DHT22;890;48.158;11.540;2023-07-13T07:02:02;21.00;99.90
1786;DHT22;890;48.158;11.540;2023-07-13T07:04:28;21.10;99.90
1786;DHT22;890;48.158;11.540;2023-07-13T07:06:54;21.20;99.90
1786;DHT22;890;48.158;11.540;2023-07-13T07:09:19;21.20;99.90
1786;DHT22;890;48.158;11.540;2023-07-13T07:11:45;21.10;99.90
1786;DHT22;890;48.158;11.540;2023-07-13T07:14:10;21.00;99.90
1786;DHT22;890;48.158;11.540;2023-07-13T07:16:36;21.00;99.90
1786;DHT22;890;48.158;11.540;2023-07-13T07:19:02;20.90;99.90
1786;DHT22;890;48.158;11.540;2023-07-13T07:21:27;20.80;99.90
1786;DHT22;890;48.158;11.540;2023-07-13T07:23:53;20.80;99.90
1786;DHT22;890;48.158;11.540;2023-07-13T07:26:19;20.70;99.90
1786;DHT22;890;48.158;11.540;2023-07-13T07:28:44;20.80;99.90
1786;DHT22;890;48.158;11.540;2023-07-13T07:31:10;20.90;99.90
1786;DHT22;890;48.158;11.540;2023-07-13T07:33:36;20.70;99.90
1786;DHT22;890;48.158;11.540;2023-07-13T07:36:02;21.00;99.90
1786;DHT22;890;48.158;11.540;2023-07-13T07:38:28;20.90;99.90
1786;DHT22;890;48.158;11.540;2023-07-13T07:40:54;21.10;99.90
1786;DHT22;890;48.158;11.540;2023-07-13T07:43:19;20.90;99.90
1786;DHT22;890;48.158;11.540;2023-07-13T07:45:45;21.00;99.90
1786;DHT22;890;48.158;11.540;2023-07-13T07:48:12;21.00;99.90
1786;DHT22;890;48.158;11.540;2023-07-13T07:50:37;20.90;99.90
1786;DHT22;890;48.158;11.540;2023-07-13T07:53:05;20.90;99.90
1786;DHT22;890;48.158;11.540;2023-07-13T07:55:34;20.90;99.90
1786;DHT22;890;48.158;11.540;2023-07-13T07:58:00;20.90;99.90
1786;DHT22;890;48.158;11.540;2023-07-13T08:00:26;20.70;99.90
1786;DHT22;890;48.158;11.540;2023-07-13T08:02:54;20.80;99.90
1786;DHT22;890;48.158;11.540;2023-07-13T08:05:20;20.70;99.90
1786;DHT22;890;48.158;11.540;2023-07-13T08:07:45;20.60;99.90
1786;DHT22;890;48.158;11.540;2023-07-13T08:10:11;20.50;99.90
1786;DHT22;890;48.158;11.540;2023-07-13T08:12:39;20.40;99.90
1786;DHT22;890;48.158;11.540;2023-07-13T08:15:08;20.50;99.90
1786;DHT22;890;48.158;11.540;2023-07-13T08:17:34;20.50;99.90
1786;DHT22;890;48.158;11.540;2023-07-13T08:19:59;20.50;99.90
1786;DHT22;890;48.158;11.540;2023-07-13T08:22:25;20.50;99.90
1786;DHT22;890;48.158;11.540;2023-07-13T08:24:50;20.40;99.90
1786;DHT22;890;48.158;11.540;2023-07-13T08:27:24;20.30;99.90
1786;DHT22;890;48.158;11.540;2023-07-13T08:29:51;20.30;99.90
1786;DHT22;890;48.158;11.540;2023-07-13T08:32:18;20.10;99.90
1786;DHT22;890;48.158;11.540;2023-07-13T08:34:43;20.10;99.90
1786;DHT22;890;48.158;11.540;2023-07-13T08:37:09;20.20;99.90
1786;DHT22;890;48.158;11.540;2023-07-13T08:39:35;20.30;99.90
1786;DHT22;890;48.158;11.540;2023-07-13T08:42:05;20.40;99.90
1786;DHT22;890;48.158;11.540;2023-07-13T08:44:43;20.40;99.80
1786;DHT22;890;48.158;11.540;2023-07-13T08:47:14;20.60;99.40
1786;DHT22;890;48.158;11.540;2023-07-13T08:49:41;20.80;99.30
1786;DHT22;890;48.158;11.540;2023-07-13T08:54:47;21.10;98.00
1786;DHT22;890;48.158;11.540;2023-07-13T08:57:16;21.10;97.80
1786;DHT22;890;48.158;11.540;2023-07-13T08:59:43;21.10;97.50
1786;DHT22;890;48.158;11.540;2023-07-13T09:04:47;21.00;95.90
1786;DHT22;890;48.158;11.540;2023-07-13T09:10:28;21.00;94.80
1786;DHT22;890;48.158;11.540;2023-07-13T09:13:37;21.10;94.80
1786;DHT22;890;48.158;11.540;2023-07-13T09:16:05;23.20;95.40
1786;DHT22;890;48.158;11.540;2023-07-13T09:18:51;21.50;93.90
1786;DHT22;890;48.158;11.540;2023-07-13T09:21:23;21.40;93.20
1786;DHT22;890;48.158;11.540;2023-07-13T09:23:54;21.40;92.90
1786;DHT22;890;48.158;11.540;2023-07-13T09:26:24;21.60;92.70
1786;DHT22;890;48.158;11.540;2023-07-13T09:28:57;21.60;92.00
1786;DHT22;890;48.158;11.540;2023-07-13T09:31:39;21.70;91.80
1786;DHT22;890;48.158;11.540;2023-07-13T09:34:11;21.80;91.00
1786;DHT22;890;48.158;11.540;2023-07-13T09:36:36;21.70;90.80
1786;DHT22;890;48.158;11.540;2023-07-13T09:39:15;21.70;90.80
1786;DHT22;890;48.158;11.540;2023-07-13T09:42:00;21.60;90.20
1786;DHT22;890;48.158;11.540;2023-07-13T09:44:44;21.60;89.70
1786;DHT22;890;48.158;11.540;2023-07-13T09:47:24;21.70;89.10
1786;DHT22;890;48.158;11.540;2023-07-13T09:50:00;22.00;88.50
1786;DHT22;890;48.158;11.540;2023-07-13T09:52:27;22.20;88.30
1786;DHT22;890;48.158;11.540;2023-07-13T09:54:54;22.30;88.80
1786;DHT22;890;48.158;11.540;2023-07-13T09:57:26;22.60;88.70
1786;DHT22;890;48.158;11.540;2023-07-13T09:59:54;22.90;88.00
1786;DHT22;890;48.158;11.540;2023-07-13T10:04:57;23.50;86.40
1786;DHT22;890;48.158;11.540;2023-07-13T10:07:24;23.60;86.40
1786;DHT22;890;48.158;11.540;2023-07-13T10:09:57;23.60;86.60
1786;DHT22;890;48.158;11.540;2023-07-13T10:12:23;23.50;84.60
1786;DHT22;890;48.158;11.540;2023-07-13T10:14:52;23.50;84.10
1786;DHT22;890;48.158;11.540;2023-07-13T10:17:27;23.60;82.70
1786;DHT22;890;48.158;11.540;2023-07-13T10:20:00;23.70;80.90
1786;DHT22;890;48.158;11.540;2023-07-13T10:22:43;23.70;78.90
1786;DHT22;890;48.158;11.540;2023-07-13T10:25:20;23.70;78.60
1786;DHT22;890;48.158;11.540;2023-07-13T10:27:48;23.80;76.60
1786;DHT22;890;48.158;11.540;2023-07-13T10:30:22;25.00;76.10
1786;DHT22;890;48.158;11.540;2023-07-13T10:32:50;24.10;76.40
1786;DHT22;890;48.158;11.540;2023-07-13T10:35:19;24.50;76.30
1786;DHT22;890;48.158;11.540;2023-07-13T10:37:52;24.70;78.10
1786;DHT22;890;48.158;11.540;2023-07-13T10:40:34;25.30;81.70
1786;DHT22;890;48.158;11.540;2023-07-13T10:43:05;25.70;78.30
1786;DHT22;890;48.158;11.540;2023-07-13T10:45:35;25.90;74.90
1786;DHT22;890;48.158;11.540;2023-07-13T10:48:03;25.70;71.50
1786;DHT22;890;48.158;11.540;2023-07-13T10:50:31;25.60;69.90
1786;DHT22;890;48.158;11.540;2023-07-13T10:58:24;26.10;67.10
1786;DHT22;890;48.158;11.540;2023-07-13T11:01:29;26.10;65.40
1786;DHT22;890;48.158;11.540;2023-07-13T11:04:02;25.90;64.20
1786;DHT22;890;48.158;11.540;2023-07-13T11:08:59;25.50;67.20
1786;DHT22;890;48.158;11.540;2023-07-13T11:11:35;25.30;67.60
1786;DHT22;890;48.158;11.540;2023-07-13T11:16:47;25.60;66.50
1786;DHT22;890;48.158;11.540;2023-07-13T11:24:59;25.60;62.00
1786;DHT22;890;48.158;11.540;2023-07-13T11:30:21;26.30;59.50
1786;DHT22;890;48.158;11.540;2023-07-13T11:32:50;26.90;63.80
1786;DHT22;890;48.158;11.540;2023-07-13T11:35:23;27.80;65.20
1786;DHT22;890;48.158;11.540;2023-07-13T11:37:51;28.30;64.00
1786;DHT22;890;48.158;11.540;2023-07-13T11:40:18;28.80;63.40
1786;DHT22;890;48.158;11.540;2023-07-13T11:42:44;29.80;60.40
1786;DHT22;890;48.158;11.540;2023-07-13T11:45:22;30.00;58.50
1786;DHT22;890;48.158;11.540;2023-07-13T11:47:49;30.00;56.90
1786;DHT22;890;48.158;11.540;2023-07-13T11:50:22;30.50;56.30
1786;DHT22;890;48.158;11.540;2023-07-13T11:52:50;30.90;54.00
1786;DHT22;890;48.158;11.540;2023-07-13T11:55:18;31.40;51.70
1786;DHT22;890;48.158;11.540;2023-07-13T11:57:57;31.40;51.60
1786;DHT22;890;48.158;11.540;2023-07-13T12:00:29;31.70;49.50
1786;DHT22;890;48.158;11.540;2023-07-13T12:02:59;31.80;50.70
1786;DHT22;890;48.158;11.540;2023-07-13T12:05:26;31.80;50.00
1786;DHT22;890;48.158;11.540;2023-07-13T12:07:52;31.50;50.70
1786;DHT22;890;48.158;11.540;2023-07-13T12:10:28;31.70;49.50
1786;DHT22;890;48.158;11.540;2023-07-13T12:13:07;31.30;48.00
1786;DHT22;890;48.158;11.540;2023-07-13T12:15:42;30.60;46.90
1786;DHT22;890;48.158;11.540;2023-07-13T12:18:29;29.80;46.60
1786;DHT22;890;48.158;11.540;2023-07-13T12:20:58;28.60;47.50
1786;DHT22;890;48.158;11.540;2023-07-13T12:23:34;28.10;48.10
1786;DHT22;890;48.158;11.540;2023-07-13T12:26:06;27.60;48.10
1786;DHT22;890;48.158;11.540;2023-07-13T12:28:37;27.30;48.30
1786;DHT22;890;48.158;11.540;2023-07-13T12:31:05;27.20;48.30
1786;DHT22;890;48.158;11.540;2023-07-13T12:33:32;27.20;48.70
1786;DHT22;890;48.158;11.540;2023-07-13T12:36:02;27.10;48.90
1786;DHT22;890;48.158;11.540;2023-07-13T12:38:28;26.80;49.30
1786;DHT22;890;48.158;11.540;2023-07-13T12:40:55;26.60;49.40
1786;DHT22;890;48.158;11.540;2023-07-13T12:43:22;26.70;49.40
1786;DHT22;890;48.158;11.540;2023-07-13T12:45:55;26.70;49.80
1786;DHT22;890;48.158;11.540;2023-07-13T12:48:21;26.40;49.80
1786;DHT22;890;48.158;11.540;2023-07-13T12:50:48;26.40;50.10
1786;DHT22;890;48.158;11.540;2023-07-13T12:53:19;26.60;50.10
1786;DHT22;890;48.158;11.540;2023-07-13T12:55:50;26.90;49.80
1786;DHT22;890;48.158;11.540;2023-07-13T12:58:30;27.20;49.30
1786;DHT22;890;48.158;11.540;2023-07-13T13:00:58;27.30;48.80
1786;DHT22;890;48.158;11.540;2023-07-13T13:08:41;26.70;48.70
1786;DHT22;890;48.158;11.540;2023-07-13T13:11:08;26.20;49.10
1786;DHT22;890;48.158;11.540;2023-07-13T13:13:34;26.10;49.40
1786;DHT22;890;48.158;11.540;2023-07-13T13:16:30;26.30;48.70
1786;DHT22;890;48.158;11.540;2023-07-13T13:19:14;26.40;48.00
1786;DHT22;890;48.158;11.540;2023-07-13T13:21:41;26.30;48.10
1786;DHT22;890;48.158;11.540;2023-07-13T13:24:19;26.10;48.60
1786;DHT22;890;48.158;11.540;2023-07-13T13:26:46;26.00;48.30
1786;DHT22;890;48.158;11.540;2023-07-13T13:29:15;26.30;48.30
1786;DHT22;890;48.158;11.540;2023-07-13T13:31:42;26.30;47.80
1786;DHT22;890;48.158;11.540;2023-07-13T13:34:10;26.30;47.80
1786;DHT22;890;48.158;11.540;2023-07-13T13:36:36;26.20;48.30
1786;DHT22;890;48.158;11.540;2023-07-13T13:39:02;26.10;48.40
1786;DHT22;890;48.158;11.540;2023-07-13T13:41:27;26.30;48.60
1786;DHT22;890;48.158;11.540;2023-07-13T13:43:53;26.40;48.30
1786;DHT22;890;48.158;11.540;2023-07-13T13:46:22;26.30;48.50
1786;DHT22;890;48.158;11.540;2023-07-13T13:48:50;26.20;48.00
1786;DHT22;890;48.158;11.540;2023-07-13T13:51:18;26.20;48.20
1786;DHT22;890;48.158;11.540;2023-07-13T13:53:45;26.30;48.20
1786;DHT22;890;48.158;11.540;2023-07-13T13:56:12;26.20;48.30
1786;DHT22;890;48.158;11.540;2023-07-13T13:58:39;26.10;48.30
1786;DHT22;890;48.158;11.540;2023-07-13T14:01:05;26.20;48.20
1786;DHT22;890;48.158;11.540;2023-07-13T14:03:35;26.50;47.70
1786;DHT22;890;48.158;11.540;2023-07-13T14:06:00;26.90;47.70
1786;DHT22;890;48.158;11.540;2023-07-13T14:08:29;26.80;47.40
1786;DHT22;890;48.158;11.540;2023-07-13T14:10:57;26.70;47.50
1786;DHT22;890;48.158;11.540;2023-07-13T14:13:32;26.90;47.80
1786;DHT22;890;48.158;11.540;2023-07-13T14:16:01;27.10;47.70
1786;DHT22;890;48.158;11.540;2023-07-13T14:18:28;26.90;47.50
1786;DHT22;890;48.158;11.540;2023-07-13T14:20:53;26.70;47.30
1786;DHT22;890;48.158;11.540;2023-07-13T14:23:19;26.50;47.70
1786;DHT22;890;48.158;11.540;2023-07-13T14:25:45;26.50;48.00
1786;DHT22;890;48.158;11.540;2023-07-13T14:28:26;26.40;48.00
1786;DHT22;890;48.158;11.540;2023-07-13T14:30:53;26.20;48.20
1786;DHT22;890;48.158;11.540;2023-07-13T14:33:20;26.20;48.20
1786;DHT22;890;48.158;11.540;2023-07-13T14:35:46;26.10;48.20
1786;DHT22;890;48.158;11.540;2023-07-13T14:38:15;25.90;48.80
1786;DHT22;890;48.158;11.540;2023-07-13T14:40:41;25.80;48.60
1786;DHT22;890;48.158;11.540;2023-07-13T14:43:11;25.90;48.70
1786;DHT22;890;48.158;11.540;2023-07-13T14:45:40;25.80;48.60
1786;DHT22;890;48.158;11.540;2023-07-13T14:50:43;25.70;49.20
1786;DHT22;890;48.158;11.540;2023-07-13T14:53:12;25.80;48.70
1786;DHT22;890;48.158;11.540;2023-07-13T14:55:38;25.50;48.60
1786;DHT22;890;48.158;11.540;2023-07-13T14:58:04;25.50;48.80
1786;DHT22;890;48.158;11.540;2023-07-13T15:00:30;25.60;48.50
1786;DHT22;890;48.158;11.540;2023-07-13T15:02:57;25.50;48.60
1786;DHT22;890;48.158;11.540;2023-07-13T15:05:27;25.50;48.90
1786;DHT22;890;48.158;11.540;2023-07-13T15:07:56;25.60;49.00
1786;DHT22;890;48.158;11.540;2023-07-13T15:10:32;26.00;48.80
1786;DHT22;890;48.158;11.540;2023-07-13T15:13:13;25.90;48.60
1786;DHT22;890;48.158;11.540;2023-07-13T15:15:40;25.80;48.40
1786;DHT22;890;48.158;11.540;2023-07-13T15:18:11;25.80;48.70
1786;DHT22;890;48.158;11.540;2023-07-13T15:20:37;25.80;48.20
1786;DHT22;890;48.158;11.540;2023-07-13T15:23:04;25.60;48.50
1786;DHT22;890;48.158;11.540;2023-07-13T15:25:31;25.70;48.70
1786;DHT22;890;48.158;11.540;2023-07-13T15:27:58;25.70;49.00
1786;DHT22;890;48.158;11.540;2023-07-13T15:30:30;25.80;48.70
1786;DHT22;890;48.158;11.540;2023-07-13T15:32:58;25.90;48.30
1786;DHT22;890;48.158;11.540;2023-07-13T15:35:26;25.90;48.40
1786;DHT22;890;48.158;11.540;2023-07-13T15:37:53;25.90;48.20
1786;DHT22;890;48.158;11.540;2023-07-13T15:40:20;25.80;48.20
1786;DHT22;890;48.158;11.540;2023-07-13T15:42:47;26.10;48.40
1786;DHT22;890;48.158;11.540;2023-07-13T15:45:24;25.70;48.40
1786;DHT22;890;48.158;11.540;2023-07-13T15:47:53;25.80;48.60
1786;DHT22;890;48.158;11.540;2023-07-13T15:50:22;25.50;48.60
1786;DHT22;890;48.158;11.540;2023-07-13T15:52:52;25.60;48.40
1786;DHT22;890;48.158;11.540;2023-07-13T15:55:18;25.60;48.80
1786;DHT22;890;48.158;11.540;2023-07-13T15:57:49;25.60;48.80
1786;DHT22;890;48.158;11.540;2023-07-13T16:00:24;25.60;48.60
1786;DHT22;890;48.158;11.540;2023-07-13T16:02:50;25.50;48.90
1786;DHT22;890;48.158;11.540;2023-07-13T16:05:17;25.60;49.10
1786;DHT22;890;48.158;11.540;2023-07-13T16:07:48;25.50;49.00
1786;DHT22;890;48.158;11.540;2023-07-13T16:10:26;25.50;49.00
1786;DHT22;890;48.158;11.540;2023-07-13T16:12:55;25.50;49.10
1786;DHT22;890;48.158;11.540;2023-07-13T16:15:22;25.70;49.00
1786;DHT22;890;48.158;11.540;2023-07-13T16:17:48;25.80;48.60
1786;DHT22;890;48.158;11.540;2023-07-13T16:20:15;25.70;49.00
1786;DHT22;890;48.158;11.540;2023-07-13T16:22:44;25.50;49.00
1786;DHT22;890;48.158;11.540;2023-07-13T16:25:21;25.40;49.40
1786;DHT22;890;48.158;11.540;2023-07-13T16:27:49;25.00;49.60
1786;DHT22;890;48.158;11.540;2023-07-13T16:30:23;24.90;49.60
1786;DHT22;890;48.158;11.540;2023-07-13T16:32:55;25.00;49.70
1786;DHT22;890;48.158;11.540;2023-07-13T16:35:23;25.00;49.80
1786;DHT22;890;48.158;11.540;2023-07-13T16:37:50;25.20;49.50
1786;DHT22;890;48.158;11.540;2023-07-13T16:42:48;26.00;48.80
1786;DHT22;890;48.158;11.540;2023-07-13T16:45:13;26.30;48.00
1786;DHT22;890;48.158;11.540;2023-07-13T16:47:41;26.10;48.10
1786;DHT22;890;48.158;11.540;2023-07-13T16:50:23;26.30;48.10
1786;DHT22;890;48.158;11.540;2023-07-13T16:52:50;26.40;47.50
1786;DHT22;890;48.158;11.540;2023-07-13T16:55:18;26.70;47.70
1786;DHT22;890;48.158;11.540;2023-07-13T16:57:48;26.80;46.90